Alberta — C6YO3 — position and weather

sailwx.info

Track history (hours):
 
Tides and Currents Weather Stations Pressure Air Temp Water Temp Dewpoint Dewpoint Depression Visibility Wind Speed Wind Dir Waves Ship Positions

Alberta

Last reported at 2017-Oct-02 06:03 UTC. Time now 2017-Oct-17 16:57 UTC.
Position N 30°55' E 032°19'.
Warning: this ship's position is 15 days out of date.

Length 229 m; draft 12.2 m.

Type: Tanker. MMSI: 311039900.

Date/timePositionNaut miles runAvg speedWind from/ knotsBaromVisibWave heightAir tempDewpointWater temp
2017-Oct-02 06:03N 30°55' E 032°19'1 9.1
2017-Oct-02 05:54N 30°56' E 032°19'4 9.0
2017-Oct-02 05:30N 30°60' E 032°19'4 8.6
2017-Oct-02 05:00N 31°04' E 032°19'4 7.9
2017-Oct-02 04:30N 31°08' E 032°19'4 7.6
2017-Oct-02 03:57N 31°12' E 032°20'3 6.6
2017-Oct-02 03:30N 31°15' E 032°21'8 1.9
2017-Oct-01 23:15N 31°23' E 032°18'0 0.0
2017-Oct-01 22:45N 31°23' E 032°18'0 0.0
2017-Oct-01 21:18N 31°23' E 032°18'0 0.0
2017-Oct-01 20:51N 31°23' E 032°18'0 0.0
2017-Oct-01 20:27N 31°23' E 032°18'0 0.0
2017-Oct-01 20:00N 31°23' E 032°18'0 0.0
2017-Oct-01 19:15N 31°23' E 032°18'0 0.0
2017-Oct-01 19:00N 31°23' E 032°18'0 0.0
2017-Oct-01 18:21N 31°23' E 032°18'0 0.0
2017-Oct-01 17:57N 31°23' E 032°18'0 0.0
2017-Oct-01 17:15N 31°23' E 032°18'0 0.0
2017-Oct-01 16:51N 31°23' E 032°18'0 0.0
2017-Oct-01 16:06N 31°23' E 032°18'0 0.1
2017-Oct-01 16:00N 31°23' E 032°18'0 0.0
2017-Oct-01 15:24N 31°23' E 032°18'0 0.0
2017-Oct-01 15:00N 31°23' E 032°18'0 0.0
2017-Oct-01 14:27N 31°23' E 032°18'0 0.3
2017-Oct-01 13:59N 31°23' E 032°18'55911.9
2017-Sep-29 14:50N 37°30' E 023°47'412.0
2017-Sep-29 14:30N 37°34' E 023°45'612.1
2017-Sep-29 14:00N 37°39' E 023°43'612.1
2017-Sep-29 13:30N 37°45' E 023°39'611.5
2017-Sep-29 13:00N 37°49' E 023°34'612.0
2017-Sep-29 12:30N 37°51' E 023°27'611.9
2017-Sep-29 12:00N 37°52' E 023°19'611.7
2017-Sep-29 11:30N 37°53' E 023°12'5 9.8
2017-Sep-29 11:00N 37°54' E 023°06'1 1.9
2017-Sep-29 10:29N 37°55' E 023°05'0 0.0
2017-Sep-29 09:59N 37°55' E 023°05'0 0.0
2017-Sep-29 09:29N 37°55' E 023°05'0 0.0
2017-Sep-29 08:59N 37°55' E 023°05'0 0.0
2017-Sep-29 08:29N 37°55' E 023°05'0 0.0
2017-Sep-29 07:59N 37°55' E 023°05'0 0.0
2017-Sep-29 07:29N 37°55' E 023°05'0 0.0
2017-Sep-29 06:59N 37°55' E 023°05'0 0.0
2017-Sep-29 06:29N 37°55' E 023°05'0 0.0
2017-Sep-29 05:59N 37°55' E 023°05'0 0.0
2017-Sep-29 05:29N 37°55' E 023°05'0 0.0
2017-Sep-29 04:59N 37°55' E 023°05'0 0.0
2017-Sep-29 04:29N 37°55' E 023°05'0 0.0
2017-Sep-29 03:59N 37°55' E 023°05'0 0.0
2017-Sep-29 03:29N 37°55' E 023°05'0 0.0
2017-Sep-29 02:59N 37°55' E 023°05'0 0.0
2017-Sep-29 02:29N 37°55' E 023°05'0 0.0
2017-Sep-29 01:59N 37°55' E 023°05'0 0.0
2017-Sep-29 01:29N 37°55' E 023°05'0 0.0
2017-Sep-29 00:59N 37°55' E 023°05'0 0.0
2017-Sep-29 00:29N 37°55' E 023°05'0 0.0
2017-Sep-28 23:59N 37°55' E 023°05'0 0.0
2017-Sep-28 23:29N 37°55' E 023°05'0 0.0
2017-Sep-28 22:59N 37°55' E 023°05'0 0.0
2017-Sep-28 22:29N 37°55' E 023°05'0 0.0
2017-Sep-28 21:56N 37°55' E 023°05'0 0.0
2017-Sep-28 21:29N 37°55' E 023°05'0 0.0
2017-Sep-28 20:59N 37°55' E 023°05'0 0.0
2017-Sep-28 20:29N 37°55' E 023°05'0 0.0
2017-Sep-28 19:59N 37°55' E 023°05'0 0.0
2017-Sep-28 19:29N 37°55' E 023°05'0 0.0
2017-Sep-28 18:59N 37°55' E 023°05'0 0.0
2017-Sep-28 18:29N 37°55' E 023°05'0 0.0
2017-Sep-28 17:59N 37°55' E 023°05'0 0.0
2017-Sep-28 17:29N 37°55' E 023°05'0 0.0
2017-Sep-28 16:59N 37°55' E 023°05'0 0.0
2017-Sep-28 16:29N 37°55' E 023°05'0 0.0
2017-Sep-28 15:59N 37°55' E 023°05'0 0.0
2017-Sep-28 15:29N 37°55' E 023°05'0 0.0
2017-Sep-28 14:59N 37°55' E 023°05'0 0.0
2017-Sep-28 14:29N 37°55' E 023°05'0 0.0
2017-Sep-28 13:59N 37°55' E 023°05'0 0.0
2017-Sep-28 13:29N 37°55' E 023°05'0 0.0
2017-Sep-28 12:59N 37°55' E 023°05'0 0.0
2017-Sep-28 12:29N 37°55' E 023°05'0 0.0
2017-Sep-28 11:59N 37°55' E 023°05'0 0.0
2017-Sep-28 11:29N 37°55' E 023°05'0 0.0
2017-Sep-28 10:59N 37°55' E 023°05'0 0.0
2017-Sep-28 10:29N 37°55' E 023°05'0 0.0
2017-Sep-28 09:59N 37°55' E 023°05'0 0.0
2017-Sep-28 09:29N 37°55' E 023°05'0 0.0
2017-Sep-28 08:59N 37°55' E 023°05'0 0.0
2017-Sep-28 08:29N 37°55' E 023°05'0 0.0
2017-Sep-28 07:59N 37°55' E 023°05'0 0.0
2017-Sep-28 07:29N 37°55' E 023°05'0 0.0
2017-Sep-28 06:59N 37°55' E 023°05'0 0.0
2017-Sep-28 06:29N 37°55' E 023°05'0 0.0
2017-Sep-28 05:59N 37°55' E 023°05'0 0.0
2017-Sep-28 05:29N 37°55' E 023°05'0 0.0
2017-Sep-28 04:59N 37°55' E 023°05'0 0.0
2017-Sep-28 04:29N 37°55' E 023°05'0 0.0
2017-Sep-28 03:59N 37°55' E 023°05'0 0.0
2017-Sep-28 03:29N 37°55' E 023°05'0 0.0
2017-Sep-28 02:59N 37°55' E 023°05'0 0.0
2017-Sep-28 02:29N 37°55' E 023°05'0 0.0
2017-Sep-28 01:59N 37°55' E 023°05'0 0.0
2017-Sep-28 01:29N 37°55' E 023°05'0 0.0
2017-Sep-28 00:59N 37°55' E 023°05'0 0.0
2017-Sep-28 00:29N 37°55' E 023°05'0 0.0
2017-Sep-27 23:59N 37°55' E 023°05'0 0.0
2017-Sep-27 23:29N 37°55' E 023°05'0 0.0
2017-Sep-27 22:59N 37°55' E 023°05'0 0.0
2017-Sep-27 22:29N 37°55' E 023°05'0 0.0
2017-Sep-27 21:59N 37°55' E 023°05'0 0.0
2017-Sep-27 21:29N 37°55' E 023°05'0 0.0
2017-Sep-27 20:59N 37°55' E 023°05'0 0.0
2017-Sep-27 20:29N 37°55' E 023°05'0 0.0
2017-Sep-27 19:59N 37°55' E 023°05'0 0.1
2017-Sep-27 19:29N 37°55' E 023°05'0 0.9
2017-Sep-27 19:00N 37°54' E 023°05'1 2.2
2017-Sep-27 18:30N 37°54' E 023°07'0 0.3
2017-Sep-27 17:59N 37°54' E 023°07'0 0.4
2017-Sep-27 17:29N 37°54' E 023°07'0 0.1
2017-Sep-27 16:59N 37°54' E 023°07'0 0.3
2017-Sep-27 16:29N 37°54' E 023°07'0 0.2
2017-Sep-27 16:00N 37°54' E 023°07'0 0.2
2017-Sep-27 15:30N 37°54' E 023°07'0 0.1
2017-Sep-27 15:00N 37°54' E 023°07'0 0.0
2017-Sep-27 14:30N 37°54' E 023°07'0 0.0
2017-Sep-27 13:59N 37°54' E 023°07'0 0.1
2017-Sep-27 13:30N 37°54' E 023°07'0 0.1
2017-Sep-27 13:00N 37°54' E 023°07'0 0.0
2017-Sep-27 12:29N 37°54' E 023°07'0 0.0
2017-Sep-27 12:00N 37°54' E 023°07'0 0.0
2017-Sep-27 11:30N 37°54' E 023°07'0 0.0
2017-Sep-27 11:00N 37°54' E 023°07'0 0.1
2017-Sep-27 10:30N 37°54' E 023°07'0 0.0
2017-Sep-27 10:00N 37°54' E 023°07'0 0.0
2017-Sep-27 09:30N 37°54' E 023°07'0 0.3
2017-Sep-27 09:00N 37°54' E 023°07'0 0.2
2017-Sep-27 08:29N 37°54' E 023°07'0 0.1
2017-Sep-27 07:59N 37°54' E 023°07'0 0.0
2017-Sep-27 07:30N 37°54' E 023°07'0 0.0
2017-Sep-27 06:59N 37°54' E 023°07'0 0.0
2017-Sep-27 06:30N 37°54' E 023°07'0 0.1
2017-Sep-27 05:59N 37°54' E 023°07'0 0.1
2017-Sep-27 05:30N 37°54' E 023°07'0 0.0
2017-Sep-27 05:00N 37°54' E 023°07'0 0.0
2017-Sep-27 04:30N 37°54' E 023°07'0 0.0
2017-Sep-27 04:00N 37°54' E 023°07'0 0.1
2017-Sep-27 03:30N 37°54' E 023°07'0 0.0
2017-Sep-27 03:00N 37°54' E 023°07'0 0.1
2017-Sep-27 02:30N 37°54' E 023°07'0 0.1
2017-Sep-27 01:59N 37°54' E 023°07'0 0.2
2017-Sep-27 01:30N 37°54' E 023°07'0 0.2
2017-Sep-27 00:59N 37°54' E 023°07'0 0.0
2017-Sep-27 00:30N 37°54' E 023°07'0 0.0
2017-Sep-27 00:00N 37°54' E 023°07'0 0.0
2017-Sep-26 23:30N 37°54' E 023°07'0 0.0
2017-Sep-26 22:59N 37°54' E 023°07'0 0.0
2017-Sep-26 22:30N 37°54' E 023°07'0 0.1
2017-Sep-26 22:00N 37°54' E 023°07'0 0.1
2017-Sep-26 21:29N 37°54' E 023°07'0 0.0
2017-Sep-26 21:00N 37°54' E 023°07'0 0.1
2017-Sep-26 20:29N 37°54' E 023°07'0 0.0
2017-Sep-26 19:59N 37°54' E 023°07'0 0.4
2017-Sep-26 19:30N 37°54' E 023°07'0 0.2
2017-Sep-26 18:59N 37°54' E 023°07'0 0.0
2017-Sep-26 18:29N 37°54' E 023°07'0 0.0
2017-Sep-26 18:00N 37°54' E 023°07'0 0.0
2017-Sep-26 17:30N 37°54' E 023°07'0 0.2
2017-Sep-26 17:00N 37°54' E 023°07'0 0.1
2017-Sep-26 16:29N 37°54' E 023°07'0 0.3
2017-Sep-26 15:59N 37°54' E 023°07'0 0.2
2017-Sep-26 15:30N 37°54' E 023°07'0 0.1
2017-Sep-26 15:00N 37°54' E 023°07'0 0.1
2017-Sep-26 14:29N 37°54' E 023°07'0 0.0
2017-Sep-26 14:00N 37°54' E 023°07'0 0.0
2017-Sep-26 13:30N 37°54' E 023°07'0 0.1
2017-Sep-26 13:00N 37°54' E 023°07'0 0.0
2017-Sep-26 12:30N 37°54' E 023°07'0 0.0
2017-Sep-26 12:00N 37°54' E 023°07'0 0.0
2017-Sep-26 11:29N 37°54' E 023°07'0 0.0
2017-Sep-26 11:00N 37°54' E 023°07'0 0.2
2017-Sep-26 10:29N 37°54' E 023°07'0 0.1
2017-Sep-26 09:59N 37°54' E 023°07'0 0.0
2017-Sep-26 09:29N 37°54' E 023°07'0 0.0
2017-Sep-26 08:59N 37°54' E 023°07'0 0.1
2017-Sep-26 08:30N 37°54' E 023°07'0 0.0
2017-Sep-26 08:00N 37°54' E 023°07'0 0.0
2017-Sep-26 07:30N 37°54' E 023°07'0 0.0
2017-Sep-26 06:59N 37°54' E 023°07'0 0.0
2017-Sep-26 06:30N 37°54' E 023°07'0 0.0
2017-Sep-26 05:59N 37°54' E 023°07'0 0.1
2017-Sep-26 05:29N 37°54' E 023°07'0 0.1
2017-Sep-26 04:59N 37°54' E 023°07'0 0.1
2017-Sep-26 04:29N 37°54' E 023°07'0 0.0
2017-Sep-26 04:00N 37°54' E 023°07'0 0.1
2017-Sep-26 03:30N 37°54' E 023°07'0 0.1
2017-Sep-26 03:00N 37°54' E 023°07'0 0.1
2017-Sep-26 02:29N 37°54' E 023°07'0 0.0
2017-Sep-26 01:59N 37°54' E 023°07'0 0.1
2017-Sep-26 01:30N 37°54' E 023°07'0 0.0
2017-Sep-26 00:59N 37°54' E 023°07'0 0.1
2017-Sep-26 00:30N 37°54' E 023°07'0 0.1
2017-Sep-25 23:59N 37°54' E 023°07'0 0.0
2017-Sep-25 23:30N 37°54' E 023°07'0 0.0
2017-Sep-25 23:00N 37°54' E 023°07'0 0.2
2017-Sep-25 22:29N 37°54' E 023°07'0 0.1
2017-Sep-25 22:00N 37°54' E 023°07'0 0.2
2017-Sep-25 21:30N 37°54' E 023°07'0 0.3
2017-Sep-25 21:00N 37°54' E 023°07'0 0.2
2017-Sep-25 20:29N 37°54' E 023°07'0 0.2
2017-Sep-25 20:00N 37°54' E 023°07'0 0.0
2017-Sep-25 19:29N 37°54' E 023°07'0 0.1
2017-Sep-25 19:00N 37°54' E 023°07'0 0.0
2017-Sep-25 18:30N 37°54' E 023°07'0 0.2
2017-Sep-25 17:59N 37°54' E 023°07'0 0.1
2017-Sep-25 17:29N 37°54' E 023°07'0 0.0
2017-Sep-25 16:59N 37°54' E 023°07'0 0.2
2017-Sep-25 16:29N 37°54' E 023°07'0 0.2
2017-Sep-25 16:00N 37°54' E 023°07'0 0.0
2017-Sep-25 15:30N 37°54' E 023°07'0 0.0
2017-Sep-25 14:59N 37°54' E 023°07'0 0.0
2017-Sep-25 14:30N 37°54' E 023°07'0 0.0
2017-Sep-25 14:00N 37°54' E 023°07'0 0.0
2017-Sep-25 13:30N 37°54' E 023°07'0 0.1
2017-Sep-25 13:00N 37°54' E 023°07'0 0.0
2017-Sep-25 12:29N 37°54' E 023°07'0 0.0
2017-Sep-25 12:00N 37°54' E 023°07'0 0.0
2017-Sep-25 11:30N 37°54' E 023°07'0 0.0
2017-Sep-25 11:00N 37°54' E 023°07'0 0.0
2017-Sep-25 10:30N 37°54' E 023°07'0 0.1
2017-Sep-25 09:57N 37°54' E 023°07'0 0.2
2017-Sep-25 09:30N 37°55' E 023°07'0 0.2
2017-Sep-25 09:00N 37°55' E 023°07'0 0.2
2017-Sep-25 08:27N 37°54' E 023°07'0 0.0
2017-Sep-25 08:00N 37°54' E 023°07'0 0.0
2017-Sep-25 07:29N 37°54' E 023°07'0 0.1
2017-Sep-25 07:00N 37°54' E 023°07'0 0.0
2017-Sep-25 06:30N 37°54' E 023°07'0 0.1
2017-Sep-25 06:00N 37°54' E 023°07'0 0.0
2017-Sep-25 05:30N 37°54' E 023°07'0 0.1
2017-Sep-25 05:00N 37°54' E 023°07'0 0.1
2017-Sep-25 04:29N 37°54' E 023°07'0 0.1
2017-Sep-25 03:59N 37°54' E 023°07'0 0.0
2017-Sep-25 03:29N 37°54' E 023°07'0 0.0
2017-Sep-25 03:00N 37°54' E 023°07'0 0.0
2017-Sep-25 02:29N 37°54' E 023°07'0 0.1
2017-Sep-25 02:00N 37°54' E 023°07'0 0.1
2017-Sep-25 01:30N 37°54' E 023°07'0 0.1
2017-Sep-25 01:00N 37°54' E 023°07'0 0.0
2017-Sep-25 00:29N 37°54' E 023°07'0 0.0
2017-Sep-25 00:00N 37°54' E 023°07'0 0.0
2017-Sep-24 23:30N 37°54' E 023°07'0 0.0
2017-Sep-24 22:59N 37°54' E 023°07'0 0.0
2017-Sep-24 22:30N 37°54' E 023°07'0 0.1
2017-Sep-24 21:59N 37°54' E 023°07'0 0.1
2017-Sep-24 21:29N 37°54' E 023°07'0 0.1
2017-Sep-24 21:00N 37°54' E 023°07'0 0.1
2017-Sep-24 20:30N 37°54' E 023°07'0 0.1
2017-Sep-24 19:59N 37°54' E 023°07'0 0.0
2017-Sep-24 19:30N 37°54' E 023°07'0 0.0
2017-Sep-24 18:59N 37°54' E 023°07'0 0.0
2017-Sep-24 18:30N 37°54' E 023°07'0 0.3
2017-Sep-24 18:00N 37°55' E 023°07'1 1.3
2017-Sep-24 17:31N 37°54' E 023°07'5 9.2
2017-Sep-24 17:01N 37°53' E 023°13'713.7
2017-Sep-24 16:30N 37°52' E 023°22'713.4
2017-Sep-24 16:01N 37°50' E 023°30'714.4
2017-Sep-24 15:30N 37°50' E 023°39'815.3
2017-Sep-24 15:00N 37°43' E 023°43'815.1
2017-Sep-24 14:30N 37°36' E 023°47'  
Track history (hours):
 
Tides and Currents Weather Stations Pressure Air Temp Water Temp Dewpoint Dewpoint Depression Visibility Wind Speed Wind Dir Waves Ship Positions

Alberta

Last reported at 2017-Oct-02 06:03 UTC. Time now 2017-Oct-17 16:57 UTC.
Position N 30°55' E 032°19'.
Warning: this ship's position is 15 days out of date.

Length 229 m; draft 12.2 m.

Type: Tanker. MMSI: 311039900.

Date/timePositionNaut miles runAvg speedWind from/ knotsBaromVisibWave heightAir tempDewpointWater temp
2017-Oct-02 06:03N 30°55' E 032°19'1 9.1
2017-Oct-02 05:54N 30°56' E 032°19'4 9.0
2017-Oct-02 05:30N 30°60' E 032°19'4 8.6
2017-Oct-02 05:00N 31°04' E 032°19'4 7.9
2017-Oct-02 04:30N 31°08' E 032°19'4 7.6
2017-Oct-02 03:57N 31°12' E 032°20'3 6.6
2017-Oct-02 03:30N 31°15' E 032°21'8 1.9
2017-Oct-01 23:15N 31°23' E 032°18'0 0.0
2017-Oct-01 22:45N 31°23' E 032°18'0 0.0
2017-Oct-01 21:18N 31°23' E 032°18'0 0.0
2017-Oct-01 20:51N 31°23' E 032°18'0 0.0
2017-Oct-01 20:27N 31°23' E 032°18'0 0.0
2017-Oct-01 20:00N 31°23' E 032°18'0 0.0
2017-Oct-01 19:15N 31°23' E 032°18'0 0.0
2017-Oct-01 19:00N 31°23' E 032°18'0 0.0
2017-Oct-01 18:21N 31°23' E 032°18'0 0.0
2017-Oct-01 17:57N 31°23' E 032°18'0 0.0
2017-Oct-01 17:15N 31°23' E 032°18'0 0.0
2017-Oct-01 16:51N 31°23' E 032°18'0 0.0
2017-Oct-01 16:06N 31°23' E 032°18'0 0.1
2017-Oct-01 16:00N 31°23' E 032°18'0 0.0
2017-Oct-01 15:24N 31°23' E 032°18'0 0.0
2017-Oct-01 15:00N 31°23' E 032°18'0 0.0
2017-Oct-01 14:27N 31°23' E 032°18'0 0.3
2017-Oct-01 13:59N 31°23' E 032°18'55911.9
2017-Sep-29 14:50N 37°30' E 023°47'412.0
2017-Sep-29 14:30N 37°34' E 023°45'612.1
2017-Sep-29 14:00N 37°39' E 023°43'612.1
2017-Sep-29 13:30N 37°45' E 023°39'611.5
2017-Sep-29 13:00N 37°49' E 023°34'612.0
2017-Sep-29 12:30N 37°51' E 023°27'611.9
2017-Sep-29 12:00N 37°52' E 023°19'611.7
2017-Sep-29 11:30N 37°53' E 023°12'5 9.8
2017-Sep-29 11:00N 37°54' E 023°06'1 1.9
2017-Sep-29 10:29N 37°55' E 023°05'0 0.0
2017-Sep-29 09:59N 37°55' E 023°05'0 0.0
2017-Sep-29 09:29N 37°55' E 023°05'0 0.0
2017-Sep-29 08:59N 37°55' E 023°05'0 0.0
2017-Sep-29 08:29N 37°55' E 023°05'0 0.0
2017-Sep-29 07:59N 37°55' E 023°05'0 0.0
2017-Sep-29 07:29N 37°55' E 023°05'0 0.0
2017-Sep-29 06:59N 37°55' E 023°05'0 0.0
2017-Sep-29 06:29N 37°55' E 023°05'0 0.0
2017-Sep-29 05:59N 37°55' E 023°05'0 0.0
2017-Sep-29 05:29N 37°55' E 023°05'0 0.0
2017-Sep-29 04:59N 37°55' E 023°05'0 0.0
2017-Sep-29 04:29N 37°55' E 023°05'0 0.0
2017-Sep-29 03:59N 37°55' E 023°05'0 0.0
2017-Sep-29 03:29N 37°55' E 023°05'0 0.0
2017-Sep-29 02:59N 37°55' E 023°05'0 0.0
2017-Sep-29 02:29N 37°55' E 023°05'0 0.0
2017-Sep-29 01:59N 37°55' E 023°05'0 0.0
2017-Sep-29 01:29N 37°55' E 023°05'0 0.0
2017-Sep-29 00:59N 37°55' E 023°05'0 0.0
2017-Sep-29 00:29N 37°55' E 023°05'0 0.0
2017-Sep-28 23:59N 37°55' E 023°05'0 0.0
2017-Sep-28 23:29N 37°55' E 023°05'0 0.0
2017-Sep-28 22:59N 37°55' E 023°05'0 0.0
2017-Sep-28 22:29N 37°55' E 023°05'0 0.0
2017-Sep-28 21:56N 37°55' E 023°05'0 0.0
2017-Sep-28 21:29N 37°55' E 023°05'0 0.0
2017-Sep-28 20:59N 37°55' E 023°05'0 0.0
2017-Sep-28 20:29N 37°55' E 023°05'0 0.0
2017-Sep-28 19:59N 37°55' E 023°05'0 0.0
2017-Sep-28 19:29N 37°55' E 023°05'0 0.0
2017-Sep-28 18:59N 37°55' E 023°05'0 0.0
2017-Sep-28 18:29N 37°55' E 023°05'0 0.0
2017-Sep-28 17:59N 37°55' E 023°05'0 0.0
2017-Sep-28 17:29N 37°55' E 023°05'0 0.0
2017-Sep-28 16:59N 37°55' E 023°05'0 0.0
2017-Sep-28 16:29N 37°55' E 023°05'0 0.0
2017-Sep-28 15:59N 37°55' E 023°05'0 0.0
2017-Sep-28 15:29N 37°55' E 023°05'0 0.0
2017-Sep-28 14:59N 37°55' E 023°05'0 0.0
2017-Sep-28 14:29N 37°55' E 023°05'0 0.0
2017-Sep-28 13:59N 37°55' E 023°05'0 0.0
2017-Sep-28 13:29N 37°55' E 023°05'0 0.0
2017-Sep-28 12:59N 37°55' E 023°05'0 0.0
2017-Sep-28 12:29N 37°55' E 023°05'0 0.0
2017-Sep-28 11:59N 37°55' E 023°05'0 0.0
2017-Sep-28 11:29N 37°55' E 023°05'0 0.0
2017-Sep-28 10:59N 37°55' E 023°05'0 0.0
2017-Sep-28 10:29N 37°55' E 023°05'0 0.0
2017-Sep-28 09:59N 37°55' E 023°05'0 0.0
2017-Sep-28 09:29N 37°55' E 023°05'0 0.0
2017-Sep-28 08:59N 37°55' E 023°05'0 0.0
2017-Sep-28 08:29N 37°55' E 023°05'0 0.0
2017-Sep-28 07:59N 37°55' E 023°05'0 0.0
2017-Sep-28 07:29N 37°55' E 023°05'0 0.0
2017-Sep-28 06:59N 37°55' E 023°05'0 0.0
2017-Sep-28 06:29N 37°55' E 023°05'0 0.0
2017-Sep-28 05:59N 37°55' E 023°05'0 0.0
2017-Sep-28 05:29N 37°55' E 023°05'0 0.0
2017-Sep-28 04:59N 37°55' E 023°05'0 0.0
2017-Sep-28 04:29N 37°55' E 023°05'0 0.0
2017-Sep-28 03:59N 37°55' E 023°05'0 0.0
2017-Sep-28 03:29N 37°55' E 023°05'0 0.0
2017-Sep-28 02:59N 37°55' E 023°05'0 0.0
2017-Sep-28 02:29N 37°55' E 023°05'0 0.0
2017-Sep-28 01:59N 37°55' E 023°05'0 0.0
2017-Sep-28 01:29N 37°55' E 023°05'0 0.0
2017-Sep-28 00:59N 37°55' E 023°05'0 0.0
2017-Sep-28 00:29N 37°55' E 023°05'0 0.0
2017-Sep-27 23:59N 37°55' E 023°05'0 0.0
2017-Sep-27 23:29N 37°55' E 023°05'0 0.0
2017-Sep-27 22:59N 37°55' E 023°05'0 0.0
2017-Sep-27 22:29N 37°55' E 023°05'0 0.0
2017-Sep-27 21:59N 37°55' E 023°05'0 0.0
2017-Sep-27 21:29N 37°55' E 023°05'0 0.0
2017-Sep-27 20:59N 37°55' E 023°05'0 0.0
2017-Sep-27 20:29N 37°55' E 023°05'0 0.0
2017-Sep-27 19:59N 37°55' E 023°05'0 0.1
2017-Sep-27 19:29N 37°55' E 023°05'0 0.9
2017-Sep-27 19:00N 37°54' E 023°05'1 2.2
2017-Sep-27 18:30N 37°54' E 023°07'0 0.3
2017-Sep-27 17:59N 37°54' E 023°07'0 0.4
2017-Sep-27 17:29N 37°54' E 023°07'0 0.1
2017-Sep-27 16:59N 37°54' E 023°07'0 0.3
2017-Sep-27 16:29N 37°54' E 023°07'0 0.2
2017-Sep-27 16:00N 37°54' E 023°07'0 0.2
2017-Sep-27 15:30N 37°54' E 023°07'0 0.1
2017-Sep-27 15:00N 37°54' E 023°07'0 0.0
2017-Sep-27 14:30N 37°54' E 023°07'0 0.0
2017-Sep-27 13:59N 37°54' E 023°07'0 0.1
2017-Sep-27 13:30N 37°54' E 023°07'0 0.1
2017-Sep-27 13:00N 37°54' E 023°07'0 0.0
2017-Sep-27 12:29N 37°54' E 023°07'0 0.0
2017-Sep-27 12:00N 37°54' E 023°07'0 0.0
2017-Sep-27 11:30N 37°54' E 023°07'0 0.0
2017-Sep-27 11:00N 37°54' E 023°07'0 0.1
2017-Sep-27 10:30N 37°54' E 023°07'0 0.0
2017-Sep-27 10:00N 37°54' E 023°07'0 0.0
2017-Sep-27 09:30N 37°54' E 023°07'0 0.3
2017-Sep-27 09:00N 37°54' E 023°07'0 0.2
2017-Sep-27 08:29N 37°54' E 023°07'0 0.1
2017-Sep-27 07:59N 37°54' E 023°07'0 0.0
2017-Sep-27 07:30N 37°54' E 023°07'0 0.0
2017-Sep-27 06:59N 37°54' E 023°07'0 0.0
2017-Sep-27 06:30N 37°54' E 023°07'0 0.1
2017-Sep-27 05:59N 37°54' E 023°07'0 0.1
2017-Sep-27 05:30N 37°54' E 023°07'0 0.0
2017-Sep-27 05:00N 37°54' E 023°07'0 0.0
2017-Sep-27 04:30N 37°54' E 023°07'0 0.0
2017-Sep-27 04:00N 37°54' E 023°07'0 0.1
2017-Sep-27 03:30N 37°54' E 023°07'0 0.0
2017-Sep-27 03:00N 37°54' E 023°07'0 0.1
2017-Sep-27 02:30N 37°54' E 023°07'0 0.1
2017-Sep-27 01:59N 37°54' E 023°07'0 0.2
2017-Sep-27 01:30N 37°54' E 023°07'0 0.2
2017-Sep-27 00:59N 37°54' E 023°07'0 0.0
2017-Sep-27 00:30N 37°54' E 023°07'0 0.0
2017-Sep-27 00:00N 37°54' E 023°07'0 0.0
2017-Sep-26 23:30N 37°54' E 023°07'0 0.0
2017-Sep-26 22:59N 37°54' E 023°07'0 0.0
2017-Sep-26 22:30N 37°54' E 023°07'0 0.1
2017-Sep-26 22:00N 37°54' E 023°07'0 0.1
2017-Sep-26 21:29N 37°54' E 023°07'0 0.0
2017-Sep-26 21:00N 37°54' E 023°07'0 0.1
2017-Sep-26 20:29N 37°54' E 023°07'0 0.0
2017-Sep-26 19:59N 37°54' E 023°07'0 0.4
2017-Sep-26 19:30N 37°54' E 023°07'0 0.2
2017-Sep-26 18:59N 37°54' E 023°07'0 0.0
2017-Sep-26 18:29N 37°54' E 023°07'0 0.0
2017-Sep-26 18:00N 37°54' E 023°07'0 0.0
2017-Sep-26 17:30N 37°54' E 023°07'0 0.2
2017-Sep-26 17:00N 37°54' E 023°07'0 0.1
2017-Sep-26 16:29N 37°54' E 023°07'0 0.3
2017-Sep-26 15:59N 37°54' E 023°07'0 0.2
2017-Sep-26 15:30N 37°54' E 023°07'0 0.1
2017-Sep-26 15:00N 37°54' E 023°07'0 0.1
2017-Sep-26 14:29N 37°54' E 023°07'0 0.0
2017-Sep-26 14:00N 37°54' E 023°07'0 0.0
2017-Sep-26 13:30N 37°54' E 023°07'0 0.1
2017-Sep-26 13:00N 37°54' E 023°07'0 0.0
2017-Sep-26 12:30N 37°54' E 023°07'0 0.0
2017-Sep-26 12:00N 37°54' E 023°07'0 0.0
2017-Sep-26 11:29N 37°54' E 023°07'0 0.0
2017-Sep-26 11:00N 37°54' E 023°07'0 0.2
2017-Sep-26 10:29N 37°54' E 023°07'0 0.1
2017-Sep-26 09:59N 37°54' E 023°07'0 0.0
2017-Sep-26 09:29N 37°54' E 023°07'0 0.0
2017-Sep-26 08:59N 37°54' E 023°07'0 0.1
2017-Sep-26 08:30N 37°54' E 023°07'0 0.0
2017-Sep-26 08:00N 37°54' E 023°07'0 0.0
2017-Sep-26 07:30N 37°54' E 023°07'0 0.0
2017-Sep-26 06:59N 37°54' E 023°07'0 0.0
2017-Sep-26 06:30N 37°54' E 023°07'0 0.0
2017-Sep-26 05:59N 37°54' E 023°07'0 0.1
2017-Sep-26 05:29N 37°54' E 023°07'0 0.1
2017-Sep-26 04:59N 37°54' E 023°07'0 0.1
2017-Sep-26 04:29N 37°54' E 023°07'0 0.0
2017-Sep-26 04:00N 37°54' E 023°07'0 0.1
2017-Sep-26 03:30N 37°54' E 023°07'0 0.1
2017-Sep-26 03:00N 37°54' E 023°07'0 0.1
2017-Sep-26 02:29N 37°54' E 023°07'0 0.0
2017-Sep-26 01:59N 37°54' E 023°07'0 0.1
2017-Sep-26 01:30N 37°54' E 023°07'0 0.0
2017-Sep-26 00:59N 37°54' E 023°07'0 0.1
2017-Sep-26 00:30N 37°54' E 023°07'0 0.1
2017-Sep-25 23:59N 37°54' E 023°07'0 0.0
2017-Sep-25 23:30N 37°54' E 023°07'0 0.0
2017-Sep-25 23:00N 37°54' E 023°07'0 0.2
2017-Sep-25 22:29N 37°54' E 023°07'0 0.1
2017-Sep-25 22:00N 37°54' E 023°07'0 0.2
2017-Sep-25 21:30N 37°54' E 023°07'0 0.3
2017-Sep-25 21:00N 37°54' E 023°07'0 0.2
2017-Sep-25 20:29N 37°54' E 023°07'0 0.2
2017-Sep-25 20:00N 37°54' E 023°07'0 0.0
2017-Sep-25 19:29N 37°54' E 023°07'0 0.1
2017-Sep-25 19:00N 37°54' E 023°07'0 0.0
2017-Sep-25 18:30N 37°54' E 023°07'0 0.2
2017-Sep-25 17:59N 37°54' E 023°07'0 0.1
2017-Sep-25 17:29N 37°54' E 023°07'0 0.0
2017-Sep-25 16:59N 37°54' E 023°07'0 0.2
2017-Sep-25 16:29N 37°54' E 023°07'0 0.2
2017-Sep-25 16:00N 37°54' E 023°07'0 0.0
2017-Sep-25 15:30N 37°54' E 023°07'0 0.0
2017-Sep-25 14:59N 37°54' E 023°07'0 0.0
2017-Sep-25 14:30N 37°54' E 023°07'0 0.0
2017-Sep-25 14:00N 37°54' E 023°07'0 0.0
2017-Sep-25 13:30N 37°54' E 023°07'0 0.1
2017-Sep-25 13:00N 37°54' E 023°07'0 0.0
2017-Sep-25 12:29N 37°54' E 023°07'0 0.0
2017-Sep-25 12:00N 37°54' E 023°07'0 0.0
2017-Sep-25 11:30N 37°54' E 023°07'0 0.0
2017-Sep-25 11:00N 37°54' E 023°07'0 0.0
2017-Sep-25 10:30N 37°54' E 023°07'0 0.1
2017-Sep-25 09:57N 37°54' E 023°07'0 0.2
2017-Sep-25 09:30N 37°55' E 023°07'0 0.2
2017-Sep-25 09:00N 37°55' E 023°07'0 0.2
2017-Sep-25 08:27N 37°54' E 023°07'0 0.0
2017-Sep-25 08:00N 37°54' E 023°07'0 0.0
2017-Sep-25 07:29N 37°54' E 023°07'0 0.1
2017-Sep-25 07:00N 37°54' E 023°07'0 0.0
2017-Sep-25 06:30N 37°54' E 023°07'0 0.1
2017-Sep-25 06:00N 37°54' E 023°07'0 0.0
2017-Sep-25 05:30N 37°54' E 023°07'0 0.1
2017-Sep-25 05:00N 37°54' E 023°07'0 0.1
2017-Sep-25 04:29N 37°54' E 023°07'0 0.1
2017-Sep-25 03:59N 37°54' E 023°07'0 0.0
2017-Sep-25 03:29N 37°54' E 023°07'0 0.0
2017-Sep-25 03:00N 37°54' E 023°07'0 0.0
2017-Sep-25 02:29N 37°54' E 023°07'0 0.1
2017-Sep-25 02:00N 37°54' E 023°07'0 0.1
2017-Sep-25 01:30N 37°54' E 023°07'0 0.1
2017-Sep-25 01:00N 37°54' E 023°07'0 0.0
2017-Sep-25 00:29N 37°54' E 023°07'0 0.0
2017-Sep-25 00:00N 37°54' E 023°07'0 0.0
2017-Sep-24 23:30N 37°54' E 023°07'0 0.0
2017-Sep-24 22:59N 37°54' E 023°07'0 0.0
2017-Sep-24 22:30N 37°54' E 023°07'0 0.1
2017-Sep-24 21:59N 37°54' E 023°07'0 0.1
2017-Sep-24 21:29N 37°54' E 023°07'0 0.1
2017-Sep-24 21:00N 37°54' E 023°07'0 0.1
2017-Sep-24 20:30N 37°54' E 023°07'0 0.1
2017-Sep-24 19:59N 37°54' E 023°07'0 0.0
2017-Sep-24 19:30N 37°54' E 023°07'0 0.0
2017-Sep-24 18:59N 37°54' E 023°07'0 0.0
2017-Sep-24 18:30N 37°54' E 023°07'0 0.3
2017-Sep-24 18:00N 37°55' E 023°07'1 1.3
2017-Sep-24 17:31N 37°54' E 023°07'5 9.2
2017-Sep-24 17:01N 37°53' E 023°13'713.7
2017-Sep-24 16:30N 37°52' E 023°22'713.4
2017-Sep-24 16:01N 37°50' E 023°30'714.4
2017-Sep-24 15:30N 37°50' E 023°39'815.3
2017-Sep-24 15:00N 37°43' E 023°43'815.1
2017-Sep-24 14:30N 37°36' E 023°47'  

Dump ship's entire track history